sensor_id;sensor_type;location;lat;lon;timestamp;P1;durP1;ratioP1;P2;durP2;ratioP2
32826;SDS011;51059;42.058;27.986;2023-06-14T00:01:24;8.00;;;5.70;;
32826;SDS011;51059;42.058;27.986;2023-06-14T00:03:50;5.53;;;4.93;;
32826;SDS011;51059;42.058;27.986;2023-06-14T00:06:16;7.53;;;5.03;;
32826;SDS011;51059;42.058;27.986;2023-06-14T00:08:43;7.73;;;5.23;;
32826;SDS011;51059;42.058;27.986;2023-06-14T00:11:09;7.10;;;5.43;;
32826;SDS011;51059;42.058;27.986;2023-06-14T00:13:34;9.00;;;5.10;;
32826;SDS011;51059;42.058;27.986;2023-06-14T00:16:00;6.50;;;5.30;;
32826;SDS011;51059;42.058;27.986;2023-06-14T00:18:26;7.77;;;5.27;;
32826;SDS011;51059;42.058;27.986;2023-06-14T00:20:55;5.60;;;5.00;;
32826;SDS011;51059;42.058;27.986;2023-06-14T00:23:20;5.83;;;5.23;;
32826;SDS011;51059;42.058;27.986;2023-06-14T00:25:47;7.53;;;5.60;;
32826;SDS011;51059;42.058;27.986;2023-06-14T00:28:14;10.73;;;5.50;;
32826;SDS011;51059;42.058;27.986;2023-06-14T00:30:40;9.53;;;5.13;;
32826;SDS011;51059;42.058;27.986;2023-06-14T00:33:08;7.67;;;5.33;;
32826;SDS011;51059;42.058;27.986;2023-06-14T00:35:34;6.13;;;5.33;;
32826;SDS011;51059;42.058;27.986;2023-06-14T00:38:00;7.33;;;5.50;;
32826;SDS011;51059;42.058;27.986;2023-06-14T00:40:27;9.33;;;5.60;;
32826;SDS011;51059;42.058;27.986;2023-06-14T00:42:53;5.63;;;5.00;;
32826;SDS011;51059;42.058;27.986;2023-06-14T00:45:19;9.20;;;5.30;;
32826;SDS011;51059;42.058;27.986;2023-06-14T00:47:45;5.90;;;5.00;;
32826;SDS011;51059;42.058;27.986;2023-06-14T00:50:11;8.40;;;5.30;;
32826;SDS011;51059;42.058;27.986;2023-06-14T00:52:39;10.10;;;5.13;;
32826;SDS011;51059;42.058;27.986;2023-06-14T00:55:05;7.43;;;5.40;;
32826;SDS011;51059;42.058;27.986;2023-06-14T00:57:31;9.27;;;5.70;;
32826;SDS011;51059;42.058;27.986;2023-06-14T00:59:57;7.93;;;5.40;;
32826;SDS011;51059;42.058;27.986;2023-06-14T01:02:23;8.83;;;5.90;;
32826;SDS011;51059;42.058;27.986;2023-06-14T01:04:49;6.30;;;5.00;;
32826;SDS011;51059;42.058;27.986;2023-06-14T01:07:25;5.53;;;4.90;;
32826;SDS011;51059;42.058;27.986;2023-06-14T01:12:37;7.23;;;5.43;;
32826;SDS011;51059;42.058;27.986;2023-06-14T01:15:04;8.57;;;5.20;;
32826;SDS011;51059;42.058;27.986;2023-06-14T01:17:31;5.90;;;5.30;;
32826;SDS011;51059;42.058;27.986;2023-06-14T01:20:04;7.27;;;5.17;;
32826;SDS011;51059;42.058;27.986;2023-06-14T01:22:34;11.57;;;5.80;;
32826;SDS011;51059;42.058;27.986;2023-06-14T01:25:01;7.13;;;4.93;;
32826;SDS011;51059;42.058;27.986;2023-06-14T01:27:28;7.63;;;5.50;;
32826;SDS011;51059;42.058;27.986;2023-06-14T01:29:58;6.83;;;5.70;;
32826;SDS011;51059;42.058;27.986;2023-06-14T01:32:26;8.30;;;4.93;;
32826;SDS011;51059;42.058;27.986;2023-06-14T01:34:52;12.43;;;5.27;;
32826;SDS011;51059;42.058;27.986;2023-06-14T01:37:19;9.03;;;5.20;;
32826;SDS011;51059;42.058;27.986;2023-06-14T01:39:45;6.53;;;5.17;;
32826;SDS011;51059;42.058;27.986;2023-06-14T01:42:11;8.37;;;5.57;;
32826;SDS011;51059;42.058;27.986;2023-06-14T01:44:38;5.80;;;5.20;;
32826;SDS011;51059;42.058;27.986;2023-06-14T01:47:04;5.97;;;5.03;;
32826;SDS011;51059;42.058;27.986;2023-06-14T01:49:33;7.27;;;5.27;;
32826;SDS011;51059;42.058;27.986;2023-06-14T01:52:00;8.97;;;5.67;;
32826;SDS011;51059;42.058;27.986;2023-06-14T01:54:26;6.07;;;5.33;;
32826;SDS011;51059;42.058;27.986;2023-06-14T01:56:52;8.27;;;5.67;;
32826;SDS011;51059;42.058;27.986;2023-06-14T01:59:18;5.97;;;5.00;;
32826;SDS011;51059;42.058;27.986;2023-06-14T02:01:44;9.37;;;5.33;;
32826;SDS011;51059;42.058;27.986;2023-06-14T02:04:11;6.07;;;5.20;;
32826;SDS011;51059;42.058;27.986;2023-06-14T02:06:37;7.37;;;5.27;;
32826;SDS011;51059;42.058;27.986;2023-06-14T02:09:03;8.83;;;5.10;;
32826;SDS011;51059;42.058;27.986;2023-06-14T02:11:30;6.33;;;5.37;;
32826;SDS011;51059;42.058;27.986;2023-06-14T02:13:57;6.38;;;5.53;;
32826;SDS011;51059;42.058;27.986;2023-06-14T02:16:26;10.47;;;5.57;;
32826;SDS011;51059;42.058;27.986;2023-06-14T02:18:54;9.33;;;5.00;;
32826;SDS011;51059;42.058;27.986;2023-06-14T02:21:21;5.97;;;5.17;;
32826;SDS011;51059;42.058;27.986;2023-06-14T02:23:47;11.73;;;5.83;;
32826;SDS011;51059;42.058;27.986;2023-06-14T02:26:13;7.80;;;5.40;;
32826;SDS011;51059;42.058;27.986;2023-06-14T02:28:39;8.27;;;5.37;;
32826;SDS011;51059;42.058;27.986;2023-06-14T02:31:06;5.80;;;5.23;;
32826;SDS011;51059;42.058;27.986;2023-06-14T02:33:32;7.27;;;5.10;;
32826;SDS011;51059;42.058;27.986;2023-06-14T02:35:58;9.93;;;5.03;;
32826;SDS011;51059;42.058;27.986;2023-06-14T02:38:24;6.63;;;5.30;;
32826;SDS011;51059;42.058;27.986;2023-06-14T02:40:49;11.77;;;5.30;;
32826;SDS011;51059;42.058;27.986;2023-06-14T02:43:22;5.80;;;5.20;;
32826;SDS011;51059;42.058;27.986;2023-06-14T02:45:47;5.93;;;5.33;;
32826;SDS011;51059;42.058;27.986;2023-06-14T02:48:12;8.27;;;5.50;;
32826;SDS011;51059;42.058;27.986;2023-06-14T02:50:38;7.63;;;5.40;;
32826;SDS011;51059;42.058;27.986;2023-06-14T02:53:06;5.33;;;4.83;;
32826;SDS011;51059;42.058;27.986;2023-06-14T02:55:32;6.07;;;5.03;;
32826;SDS011;51059;42.058;27.986;2023-06-14T02:57:59;6.60;;;4.73;;
32826;SDS011;51059;42.058;27.986;2023-06-14T03:00:26;5.37;;;4.77;;
32826;SDS011;51059;42.058;27.986;2023-06-14T03:02:55;6.20;;;4.00;;
32826;SDS011;51059;42.058;27.986;2023-06-14T03:05:21;6.17;;;4.60;;
32826;SDS011;51059;42.058;27.986;2023-06-14T03:07:48;5.17;;;4.23;;
32826;SDS011;51059;42.058;27.986;2023-06-14T03:10:15;9.40;;;4.40;;
32826;SDS011;51059;42.058;27.986;2023-06-14T03:12:40;4.40;;;4.00;;
32826;SDS011;51059;42.058;27.986;2023-06-14T03:15:06;4.57;;;3.50;;
32826;SDS011;51059;42.058;27.986;2023-06-14T03:17:32;3.40;;;3.10;;
32826;SDS011;51059;42.058;27.986;2023-06-14T03:20:02;6.45;;;3.70;;
32826;SDS011;51059;42.058;27.986;2023-06-14T03:22:29;5.00;;;3.30;;
32826;SDS011;51059;42.058;27.986;2023-06-14T03:24:57;9.43;;;3.30;;
32826;SDS011;51059;42.058;27.986;2023-06-14T03:27:24;6.03;;;3.03;;
32826;SDS011;51059;42.058;27.986;2023-06-14T03:29:51;6.70;;;2.70;;
32826;SDS011;51059;42.058;27.986;2023-06-14T03:32:16;4.30;;;2.90;;
32826;SDS011;51059;42.058;27.986;2023-06-14T03:34:42;3.15;;;2.50;;
32826;SDS011;51059;42.058;27.986;2023-06-14T03:37:10;6.45;;;2.88;;
32826;SDS011;51059;42.058;27.986;2023-06-14T03:39:35;3.88;;;2.67;;
32826;SDS011;51059;42.058;27.986;2023-06-14T03:42:01;2.55;;;2.35;;
32826;SDS011;51059;42.058;27.986;2023-06-14T03:44:27;3.00;;;2.70;;
32826;SDS011;51059;42.058;27.986;2023-06-14T03:46:53;6.05;;;2.47;;
32826;SDS011;51059;42.058;27.986;2023-06-14T03:49:18;3.25;;;2.30;;
32826;SDS011;51059;42.058;27.986;2023-06-14T03:51:44;5.78;;;2.13;;
32826;SDS011;51059;42.058;27.986;2023-06-14T03:54:11;3.67;;;2.28;;
32826;SDS011;51059;42.058;27.986;2023-06-14T03:56:36;14.48;;;2.88;;
32826;SDS011;51059;42.058;27.986;2023-06-14T03:59:04;2.70;;;2.45;;
32826;SDS011;51059;42.058;27.986;2023-06-14T04:01:30;2.70;;;1.95;;
32826;SDS011;51059;42.058;27.986;2023-06-14T04:03:56;6.68;;;4.80;;
32826;SDS011;51059;42.058;27.986;2023-06-14T04:06:22;3.83;;;2.80;;
32826;SDS011;51059;42.058;27.986;2023-06-14T04:08:51;6.75;;;3.90;;
32826;SDS011;51059;42.058;27.986;2023-06-14T04:11:17;6.68;;;2.80;;
32826;SDS011;51059;42.058;27.986;2023-06-14T04:13:42;3.65;;;2.08;;
32826;SDS011;51059;42.058;27.986;2023-06-14T04:16:08;2.90;;;2.20;;
32826;SDS011;51059;42.058;27.986;2023-06-14T04:18:35;2.35;;;2.13;;
32826;SDS011;51059;42.058;27.986;2023-06-14T04:21:01;4.53;;;2.03;;
32826;SDS011;51059;42.058;27.986;2023-06-14T04:23:26;5.28;;;2.20;;
32826;SDS011;51059;42.058;27.986;2023-06-14T04:25:53;3.22;;;1.90;;
32826;SDS011;51059;42.058;27.986;2023-06-14T04:28:20;7.25;;;3.10;;
32826;SDS011;51059;42.058;27.986;2023-06-14T04:30:50;4.65;;;4.25;;
32826;SDS011;51059;42.058;27.986;2023-06-14T04:33:17;4.00;;;3.20;;
32826;SDS011;51059;42.058;27.986;2023-06-14T04:35:45;4.28;;;2.92;;
32826;SDS011;51059;42.058;27.986;2023-06-14T04:38:12;2.80;;;2.10;;
32826;SDS011;51059;42.058;27.986;2023-06-14T04:40:38;2.08;;;1.88;;
32826;SDS011;51059;42.058;27.986;2023-06-14T04:43:08;2.30;;;2.10;;
32826;SDS011;51059;42.058;27.986;2023-06-14T04:45:35;3.38;;;1.95;;
32826;SDS011;51059;42.058;27.986;2023-06-14T04:48:02;3.97;;;3.58;;
32826;SDS011;51059;42.058;27.986;2023-06-14T04:50:27;6.88;;;3.70;;
32826;SDS011;51059;42.058;27.986;2023-06-14T04:52:56;3.28;;;2.58;;
32826;SDS011;51059;42.058;27.986;2023-06-14T04:55:22;4.13;;;1.90;;
32826;SDS011;51059;42.058;27.986;2023-06-14T04:57:47;3.65;;;2.10;;
32826;SDS011;51059;42.058;27.986;2023-06-14T05:00:14;4.10;;;2.10;;
32826;SDS011;51059;42.058;27.986;2023-06-14T05:02:39;2.97;;;2.60;;
32826;SDS011;51059;42.058;27.986;2023-06-14T05:05:06;2.13;;;1.92;;
32826;SDS011;51059;42.058;27.986;2023-06-14T05:07:32;3.53;;;1.90;;
32826;SDS011;51059;42.058;27.986;2023-06-14T05:09:59;4.22;;;1.85;;
32826;SDS011;51059;42.058;27.986;2023-06-14T05:12:27;2.65;;;1.92;;
32826;SDS011;51059;42.058;27.986;2023-06-14T05:14:52;1.80;;;1.70;;
32826;SDS011;51059;42.058;27.986;2023-06-14T05:17:18;2.05;;;1.75;;
32826;SDS011;51059;42.058;27.986;2023-06-14T05:19:45;2.75;;;2.10;;
32826;SDS011;51059;42.058;27.986;2023-06-14T05:22:12;1.90;;;1.70;;
32826;SDS011;51059;42.058;27.986;2023-06-14T05:24:38;2.72;;;2.00;;
32826;SDS011;51059;42.058;27.986;2023-06-14T05:27:06;6.22;;;2.72;;
32826;SDS011;51059;42.058;27.986;2023-06-14T05:29:32;3.13;;;2.83;;
32826;SDS011;51059;42.058;27.986;2023-06-14T05:31:58;2.92;;;2.47;;
32826;SDS011;51059;42.058;27.986;2023-06-14T05:34:25;7.68;;;2.88;;
32826;SDS011;51059;42.058;27.986;2023-06-14T05:36:50;5.13;;;2.00;;
32826;SDS011;51059;42.058;27.986;2023-06-14T05:39:16;4.60;;;2.20;;
32826;SDS011;51059;42.058;27.986;2023-06-14T05:41:43;4.57;;;1.92;;
32826;SDS011;51059;42.058;27.986;2023-06-14T05:44:09;4.28;;;2.00;;
32826;SDS011;51059;42.058;27.986;2023-06-14T05:46:35;7.55;;;2.53;;
32826;SDS011;51059;42.058;27.986;2023-06-14T05:49:00;3.78;;;2.58;;
32826;SDS011;51059;42.058;27.986;2023-06-14T05:51:26;6.63;;;2.60;;
32826;SDS011;51059;42.058;27.986;2023-06-14T05:53:51;5.05;;;2.25;;
32826;SDS011;51059;42.058;27.986;2023-06-14T05:56:18;7.50;;;5.20;;
32826;SDS011;51059;42.058;27.986;2023-06-14T05:58:44;5.63;;;4.03;;
32826;SDS011;51059;42.058;27.986;2023-06-14T06:01:10;2.90;;;2.50;;
32826;SDS011;51059;42.058;27.986;2023-06-14T06:03:36;7.07;;;2.45;;
32826;SDS011;51059;42.058;27.986;2023-06-14T06:06:01;5.93;;;2.40;;
32826;SDS011;51059;42.058;27.986;2023-06-14T06:08:28;6.60;;;2.88;;
32826;SDS011;51059;42.058;27.986;2023-06-14T06:10:54;3.60;;;2.30;;
32826;SDS011;51059;42.058;27.986;2023-06-14T06:13:20;2.70;;;2.20;;
32826;SDS011;51059;42.058;27.986;2023-06-14T06:15:46;5.07;;;2.60;;
32826;SDS011;51059;42.058;27.986;2023-06-14T06:18:12;5.55;;;2.60;;
32826;SDS011;51059;42.058;27.986;2023-06-14T06:20:37;6.97;;;4.22;;
32826;SDS011;51059;42.058;27.986;2023-06-14T06:23:02;5.10;;;3.45;;
32826;SDS011;51059;42.058;27.986;2023-06-14T06:25:28;5.07;;;2.95;;
32826;SDS011;51059;42.058;27.986;2023-06-14T06:27:54;5.82;;;2.55;;
32826;SDS011;51059;42.058;27.986;2023-06-14T06:30:22;3.90;;;2.40;;
32826;SDS011;51059;42.058;27.986;2023-06-14T06:32:48;5.05;;;2.53;;
32826;SDS011;51059;42.058;27.986;2023-06-14T06:35:14;7.55;;;3.08;;
32826;SDS011;51059;42.058;27.986;2023-06-14T06:37:43;8.57;;;2.88;;
32826;SDS011;51059;42.058;27.986;2023-06-14T06:40:09;5.28;;;2.58;;
32826;SDS011;51059;42.058;27.986;2023-06-14T06:42:35;3.85;;;2.22;;
32826;SDS011;51059;42.058;27.986;2023-06-14T06:45:01;9.68;;;2.83;;
32826;SDS011;51059;42.058;27.986;2023-06-14T06:47:26;4.13;;;2.80;;
32826;SDS011;51059;42.058;27.986;2023-06-14T06:49:52;5.97;;;3.20;;
32826;SDS011;51059;42.058;27.986;2023-06-14T06:52:18;7.28;;;2.95;;
32826;SDS011;51059;42.058;27.986;2023-06-14T06:54:43;5.45;;;3.00;;
32826;SDS011;51059;42.058;27.986;2023-06-14T06:57:09;4.80;;;3.40;;
32826;SDS011;51059;42.058;27.986;2023-06-14T06:59:36;6.10;;;3.00;;
32826;SDS011;51059;42.058;27.986;2023-06-14T07:02:02;6.57;;;3.00;;
32826;SDS011;51059;42.058;27.986;2023-06-14T07:04:28;8.60;;;2.90;;
32826;SDS011;51059;42.058;27.986;2023-06-14T07:06:53;5.40;;;2.90;;
32826;SDS011;51059;42.058;27.986;2023-06-14T07:09:18;5.40;;;2.65;;
32826;SDS011;51059;42.058;27.986;2023-06-14T07:11:45;6.72;;;3.03;;
32826;SDS011;51059;42.058;27.986;2023-06-14T07:14:11;6.00;;;2.90;;
32826;SDS011;51059;42.058;27.986;2023-06-14T07:16:37;7.28;;;3.20;;
32826;SDS011;51059;42.058;27.986;2023-06-14T07:19:02;5.55;;;3.15;;
32826;SDS011;51059;42.058;27.986;2023-06-14T07:21:28;6.13;;;3.15;;
32826;SDS011;51059;42.058;27.986;2023-06-14T07:23:54;4.97;;;2.67;;
32826;SDS011;51059;42.058;27.986;2023-06-14T07:26:21;3.92;;;3.10;;
32826;SDS011;51059;42.058;27.986;2023-06-14T07:28:48;8.38;;;3.20;;
32826;SDS011;51059;42.058;27.986;2023-06-14T07:31:16;6.00;;;3.10;;
32826;SDS011;51059;42.058;27.986;2023-06-14T07:33:42;4.60;;;3.00;;
32826;SDS011;51059;42.058;27.986;2023-06-14T07:36:08;6.20;;;3.00;;
32826;SDS011;51059;42.058;27.986;2023-06-14T07:38:33;3.85;;;3.00;;
32826;SDS011;51059;42.058;27.986;2023-06-14T07:40:59;7.45;;;3.30;;
32826;SDS011;51059;42.058;27.986;2023-06-14T07:43:25;4.10;;;3.17;;
32826;SDS011;51059;42.058;27.986;2023-06-14T07:45:51;10.55;;;3.17;;
32826;SDS011;51059;42.058;27.986;2023-06-14T07:48:16;8.00;;;3.42;;
32826;SDS011;51059;42.058;27.986;2023-06-14T07:50:44;4.38;;;3.55;;
32826;SDS011;51059;42.058;27.986;2023-06-14T07:53:10;7.80;;;3.40;;
32826;SDS011;51059;42.058;27.986;2023-06-14T07:55:36;4.05;;;3.10;;
32826;SDS011;51059;42.058;27.986;2023-06-14T07:58:07;6.03;;;3.17;;
32826;SDS011;51059;42.058;27.986;2023-06-14T08:00:34;5.25;;;3.05;;
32826;SDS011;51059;42.058;27.986;2023-06-14T08:03:00;8.18;;;3.30;;
32826;SDS011;51059;42.058;27.986;2023-06-14T08:05:27;6.10;;;3.38;;
32826;SDS011;51059;42.058;27.986;2023-06-14T08:07:52;7.65;;;3.63;;
32826;SDS011;51059;42.058;27.986;2023-06-14T08:10:18;3.80;;;3.20;;
32826;SDS011;51059;42.058;27.986;2023-06-14T08:12:45;4.72;;;3.40;;
32826;SDS011;51059;42.058;27.986;2023-06-14T08:15:11;5.53;;;3.20;;
32826;SDS011;51059;42.058;27.986;2023-06-14T08:17:37;6.25;;;3.25;;
32826;SDS011;51059;42.058;27.986;2023-06-14T08:20:03;6.68;;;3.55;;
32826;SDS011;51059;42.058;27.986;2023-06-14T08:22:32;4.72;;;4.07;;
32826;SDS011;51059;42.058;27.986;2023-06-14T08:25:00;9.18;;;3.95;;
32826;SDS011;51059;42.058;27.986;2023-06-14T08:27:26;4.22;;;3.60;;
32826;SDS011;51059;42.058;27.986;2023-06-14T08:29:52;4.20;;;3.30;;
32826;SDS011;51059;42.058;27.986;2023-06-14T08:32:18;4.63;;;3.55;;
32826;SDS011;51059;42.058;27.986;2023-06-14T08:34:43;5.57;;;3.60;;
32826;SDS011;51059;42.058;27.986;2023-06-14T08:37:14;5.07;;;3.60;;
32826;SDS011;51059;42.058;27.986;2023-06-14T08:39:41;8.32;;;4.05;;
32826;SDS011;51059;42.058;27.986;2023-06-14T08:42:07;7.25;;;3.55;;
32826;SDS011;51059;42.058;27.986;2023-06-14T08:44:34;4.95;;;4.28;;
32826;SDS011;51059;42.058;27.986;2023-06-14T08:46:59;5.65;;;3.88;;
32826;SDS011;51059;42.058;27.986;2023-06-14T08:49:25;7.15;;;3.88;;
32826;SDS011;51059;42.058;27.986;2023-06-14T08:52:00;4.10;;;3.53;;
32826;SDS011;51059;42.058;27.986;2023-06-14T08:54:27;8.35;;;3.67;;
32826;SDS011;51059;42.058;27.986;2023-06-14T08:56:53;4.22;;;3.58;;
32826;SDS011;51059;42.058;27.986;2023-06-14T08:59:30;4.10;;;3.47;;
32826;SDS011;51059;42.058;27.986;2023-06-14T09:02:00;7.07;;;3.97;;
32826;SDS011;51059;42.058;27.986;2023-06-14T09:04:26;10.70;;;4.07;;
32826;SDS011;51059;42.058;27.986;2023-06-14T09:06:55;7.35;;;4.00;;
32826;SDS011;51059;42.058;27.986;2023-06-14T09:09:22;8.00;;;4.07;;
32826;SDS011;51059;42.058;27.986;2023-06-14T09:11:52;6.18;;;4.43;;
32826;SDS011;51059;42.058;27.986;2023-06-14T09:14:18;8.05;;;4.55;;
32826;SDS011;51059;42.058;27.986;2023-06-14T09:16:44;6.38;;;4.22;;
32826;SDS011;51059;42.058;27.986;2023-06-14T09:19:13;8.48;;;4.07;;
32826;SDS011;51059;42.058;27.986;2023-06-14T09:21:39;5.68;;;4.05;;
32826;SDS011;51059;42.058;27.986;2023-06-14T09:24:06;6.97;;;4.45;;
32826;SDS011;51059;42.058;27.986;2023-06-14T09:26:32;5.45;;;4.40;;
32826;SDS011;51059;42.058;27.986;2023-06-14T09:28:58;4.35;;;3.90;;
32826;SDS011;51059;42.058;27.986;2023-06-14T09:31:23;7.97;;;3.83;;
32826;SDS011;51059;42.058;27.986;2023-06-14T09:33:49;9.27;;;3.90;;
32826;SDS011;51059;42.058;27.986;2023-06-14T09:36:16;5.85;;;3.88;;
32826;SDS011;51059;42.058;27.986;2023-06-14T09:38:51;6.65;;;4.13;;
32826;SDS011;51059;42.058;27.986;2023-06-14T09:41:17;5.05;;;3.88;;
32826;SDS011;51059;42.058;27.986;2023-06-14T09:43:43;4.57;;;4.15;;
32826;SDS011;51059;42.058;27.986;2023-06-14T09:46:11;7.38;;;3.92;;
32826;SDS011;51059;42.058;27.986;2023-06-14T09:48:37;4.07;;;3.70;;
32826;SDS011;51059;42.058;27.986;2023-06-14T09:51:09;7.50;;;4.18;;
32826;SDS011;51059;42.058;27.986;2023-06-14T09:53:35;7.65;;;4.30;;
32826;SDS011;51059;42.058;27.986;2023-06-14T09:56:02;6.20;;;4.63;;
32826;SDS011;51059;42.058;27.986;2023-06-14T09:58:30;7.80;;;4.65;;
32826;SDS011;51059;42.058;27.986;2023-06-14T10:00:56;6.63;;;4.70;;
32826;SDS011;51059;42.058;27.986;2023-06-14T10:03:27;5.55;;;4.00;;
32826;SDS011;51059;42.058;27.986;2023-06-14T10:05:53;4.32;;;4.03;;
32826;SDS011;51059;42.058;27.986;2023-06-14T10:08:25;7.25;;;4.35;;
32826;SDS011;51059;42.058;27.986;2023-06-14T10:10:55;8.52;;;4.25;;
32826;SDS011;51059;42.058;27.986;2023-06-14T10:13:21;6.68;;;4.68;;
32826;SDS011;51059;42.058;27.986;2023-06-14T10:18:23;8.30;;;5.03;;
32826;SDS011;51059;42.058;27.986;2023-06-14T10:21:08;6.47;;;4.10;;
32826;SDS011;51059;42.058;27.986;2023-06-14T10:23:40;6.18;;;5.07;;
32826;SDS011;51059;42.058;27.986;2023-06-14T10:26:07;8.45;;;4.75;;
32826;SDS011;51059;42.058;27.986;2023-06-14T10:28:36;5.55;;;4.30;;
32826;SDS011;51059;42.058;27.986;2023-06-14T10:31:09;7.03;;;4.35;;
32826;SDS011;51059;42.058;27.986;2023-06-14T10:33:36;8.80;;;4.53;;
32826;SDS011;51059;42.058;27.986;2023-06-14T10:36:09;5.72;;;4.47;;
32826;SDS011;51059;42.058;27.986;2023-06-14T10:38:36;6.72;;;4.57;;
32826;SDS011;51059;42.058;27.986;2023-06-14T10:41:02;5.15;;;4.65;;
32826;SDS011;51059;42.058;27.986;2023-06-14T10:43:29;6.53;;;4.50;;
32826;SDS011;51059;42.058;27.986;2023-06-14T10:48:43;4.97;;;4.43;;
32826;SDS011;51059;42.058;27.986;2023-06-14T10:51:16;4.95;;;4.50;;
32826;SDS011;51059;42.058;27.986;2023-06-14T10:53:46;4.57;;;4.15;;
32826;SDS011;51059;42.058;27.986;2023-06-14T10:56:30;6.07;;;4.13;;
32826;SDS011;51059;42.058;27.986;2023-06-14T10:58:57;9.20;;;4.40;;
32826;SDS011;51059;42.058;27.986;2023-06-14T11:04:14;5.25;;;4.70;;
32826;SDS011;51059;42.058;27.986;2023-06-14T11:06:46;6.60;;;4.75;;
32826;SDS011;51059;42.058;27.986;2023-06-14T11:11:59;5.72;;;4.55;;
32826;SDS011;51059;42.058;27.986;2023-06-14T11:14:26;8.95;;;4.60;;
32826;SDS011;51059;42.058;27.986;2023-06-14T11:17:00;8.55;;;4.90;;
32826;SDS011;51059;42.058;27.986;2023-06-14T11:19:26;5.20;;;4.70;;
32826;SDS011;51059;42.058;27.986;2023-06-14T11:21:54;7.53;;;4.60;;
32826;SDS011;51059;42.058;27.986;2023-06-14T11:24:20;6.95;;;4.70;;
32826;SDS011;51059;42.058;27.986;2023-06-14T11:26:48;7.38;;;4.50;;
32826;SDS011;51059;42.058;27.986;2023-06-14T11:29:14;5.13;;;4.22;;
32826;SDS011;51059;42.058;27.986;2023-06-14T11:31:44;5.25;;;4.53;;
32826;SDS011;51059;42.058;27.986;2023-06-14T11:34:11;4.70;;;4.30;;
32826;SDS011;51059;42.058;27.986;2023-06-14T11:36:38;5.30;;;4.80;;
32826;SDS011;51059;42.058;27.986;2023-06-14T11:39:05;7.82;;;4.97;;
32826;SDS011;51059;42.058;27.986;2023-06-14T11:41:42;6.30;;;4.28;;
32826;SDS011;51059;42.058;27.986;2023-06-14T11:44:08;5.57;;;4.50;;
32826;SDS011;51059;42.058;27.986;2023-06-14T11:46:34;8.38;;;4.80;;
32826;SDS011;51059;42.058;27.986;2023-06-14T11:49:01;8.88;;;5.13;;
32826;SDS011;51059;42.058;27.986;2023-06-14T11:51:32;9.05;;;4.70;;
32826;SDS011;51059;42.058;27.986;2023-06-14T11:53:58;6.22;;;4.50;;
32826;SDS011;51059;42.058;27.986;2023-06-14T11:56:24;4.82;;;4.30;;
32826;SDS011;51059;42.058;27.986;2023-06-14T11:58:50;4.60;;;4.20;;
32826;SDS011;51059;42.058;27.986;2023-06-14T12:01:17;6.47;;;4.50;;
32826;SDS011;51059;42.058;27.986;2023-06-14T12:03:55;5.28;;;4.50;;
32826;SDS011;51059;42.058;27.986;2023-06-14T12:06:27;4.15;;;3.75;;
32826;SDS011;51059;42.058;27.986;2023-06-14T12:08:55;4.80;;;3.90;;
32826;SDS011;51059;42.058;27.986;2023-06-14T12:11:20;4.68;;;4.10;;
32826;SDS011;51059;42.058;27.986;2023-06-14T12:13:46;4.88;;;3.63;;
32826;SDS011;51059;42.058;27.986;2023-06-14T12:16:14;4.18;;;3.60;;
32826;SDS011;51059;42.058;27.986;2023-06-14T12:18:40;4.80;;;3.58;;
32826;SDS011;51059;42.058;27.986;2023-06-14T12:21:07;4.35;;;3.75;;
32826;SDS011;51059;42.058;27.986;2023-06-14T12:23:44;5.20;;;3.75;;
32826;SDS011;51059;42.058;27.986;2023-06-14T12:26:13;4.00;;;3.63;;
32826;SDS011;51059;42.058;27.986;2023-06-14T12:28:40;3.60;;;3.30;;
32826;SDS011;51059;42.058;27.986;2023-06-14T12:31:07;3.80;;;3.40;;
32826;SDS011;51059;42.058;27.986;2023-06-14T12:33:33;5.28;;;3.55;;
32826;SDS011;51059;42.058;27.986;2023-06-14T12:35:58;3.70;;;3.33;;
32826;SDS011;51059;42.058;27.986;2023-06-14T12:38:24;3.47;;;3.10;;
32826;SDS011;51059;42.058;27.986;2023-06-14T12:40:51;5.65;;;3.30;;
32826;SDS011;51059;42.058;27.986;2023-06-14T12:43:18;9.13;;;3.80;;
32826;SDS011;51059;42.058;27.986;2023-06-14T12:45:44;5.25;;;3.13;;
32826;SDS011;51059;42.058;27.986;2023-06-14T12:48:10;5.72;;;3.30;;
32826;SDS011;51059;42.058;27.986;2023-06-14T12:50:37;6.22;;;5.00;;
32826;SDS011;51059;42.058;27.986;2023-06-14T12:53:04;4.28;;;3.10;;
32826;SDS011;51059;42.058;27.986;2023-06-14T12:55:29;5.90;;;3.63;;
32826;SDS011;51059;42.058;27.986;2023-06-14T12:57:55;7.50;;;3.88;;
32826;SDS011;51059;42.058;27.986;2023-06-14T13:00:20;6.50;;;3.20;;
32826;SDS011;51059;42.058;27.986;2023-06-14T13:02:47;5.82;;;3.08;;
32826;SDS011;51059;42.058;27.986;2023-06-14T13:05:12;5.60;;;3.10;;
32826;SDS011;51059;42.058;27.986;2023-06-14T13:07:37;5.72;;;3.35;;
32826;SDS011;51059;42.058;27.986;2023-06-14T13:10:03;5.60;;;3.20;;
32826;SDS011;51059;42.058;27.986;2023-06-14T13:12:29;5.43;;;3.05;;
32826;SDS011;51059;42.058;27.986;2023-06-14T13:14:55;3.70;;;3.35;;
32826;SDS011;51059;42.058;27.986;2023-06-14T13:17:21;13.15;;;3.42;;
32826;SDS011;51059;42.058;27.986;2023-06-14T13:19:48;3.72;;;3.42;;
32826;SDS011;51059;42.058;27.986;2023-06-14T13:22:14;6.55;;;3.80;;
32826;SDS011;51059;42.058;27.986;2023-06-14T13:24:39;4.60;;;3.33;;
32826;SDS011;51059;42.058;27.986;2023-06-14T13:27:05;3.55;;;3.25;;
32826;SDS011;51059;42.058;27.986;2023-06-14T13:29:31;6.20;;;3.58;;
32826;SDS011;51059;42.058;27.986;2023-06-14T13:31:58;5.82;;;3.65;;
32826;SDS011;51059;42.058;27.986;2023-06-14T13:34:24;5.55;;;3.58;;
32826;SDS011;51059;42.058;27.986;2023-06-14T13:36:51;5.53;;;3.72;;
32826;SDS011;51059;42.058;27.986;2023-06-14T13:39:17;4.55;;;4.05;;
32826;SDS011;51059;42.058;27.986;2023-06-14T13:41:42;4.20;;;3.80;;
32826;SDS011;51059;42.058;27.986;2023-06-14T13:44:08;5.53;;;4.00;;
32826;SDS011;51059;42.058;27.986;2023-06-14T13:46:37;5.13;;;3.83;;
32826;SDS011;51059;42.058;27.986;2023-06-14T13:49:03;4.38;;;3.75;;
32826;SDS011;51059;42.058;27.986;2023-06-14T13:51:30;6.65;;;4.00;;
32826;SDS011;51059;42.058;27.986;2023-06-14T13:53:57;4.68;;;4.00;;
32826;SDS011;51059;42.058;27.986;2023-06-14T13:56:22;6.00;;;4.35;;
32826;SDS011;51059;42.058;27.986;2023-06-14T13:58:49;5.07;;;4.57;;
32826;SDS011;51059;42.058;27.986;2023-06-14T14:01:15;7.15;;;4.50;;
32826;SDS011;51059;42.058;27.986;2023-06-14T14:03:43;7.47;;;4.25;;
32826;SDS011;51059;42.058;27.986;2023-06-14T14:06:10;5.63;;;4.35;;
32826;SDS011;51059;42.058;27.986;2023-06-14T14:08:36;7.28;;;4.60;;
32826;SDS011;51059;42.058;27.986;2023-06-14T14:11:02;7.10;;;4.28;;
32826;SDS011;51059;42.058;27.986;2023-06-14T14:13:28;4.95;;;4.40;;
32826;SDS011;51059;42.058;27.986;2023-06-14T14:15:54;4.90;;;4.40;;
32826;SDS011;51059;42.058;27.986;2023-06-14T14:18:20;8.20;;;4.72;;
32826;SDS011;51059;42.058;27.986;2023-06-14T14:20:47;6.68;;;4.53;;
32826;SDS011;51059;42.058;27.986;2023-06-14T14:23:13;5.18;;;4.68;;
32826;SDS011;51059;42.058;27.986;2023-06-14T14:25:38;9.02;;;4.65;;
32826;SDS011;51059;42.058;27.986;2023-06-14T14:28:04;6.88;;;4.57;;
32826;SDS011;51059;42.058;27.986;2023-06-14T14:30:30;7.45;;;4.78;;
32826;SDS011;51059;42.058;27.986;2023-06-14T14:33:02;5.40;;;4.68;;
32826;SDS011;51059;42.058;27.986;2023-06-14T14:35:28;6.70;;;4.95;;
32826;SDS011;51059;42.058;27.986;2023-06-14T14:37:55;8.10;;;4.97;;
32826;SDS011;51059;42.058;27.986;2023-06-14T14:40:21;10.50;;;5.40;;
32826;SDS011;51059;42.058;27.986;2023-06-14T14:42:47;7.30;;;4.75;;
32826;SDS011;51059;42.058;27.986;2023-06-14T14:45:13;14.40;;;5.32;;